createdAt,value
2023-09-17T00:01:44.974Z,23.70
2023-09-17T00:04:12.019Z,23.70
2023-09-17T00:06:39.234Z,23.70
2023-09-17T00:09:06.133Z,23.60
2023-09-17T00:11:33.060Z,23.60
2023-09-17T00:13:59.962Z,23.60
2023-09-17T00:16:32.450Z,23.60
2023-09-17T00:18:59.970Z,23.60
2023-09-17T00:21:26.836Z,23.60
2023-09-17T00:23:53.684Z,23.50
2023-09-17T00:26:20.613Z,23.60
2023-09-17T00:28:47.478Z,23.50
2023-09-17T00:31:14.484Z,23.60
2023-09-17T00:33:41.420Z,23.60
2023-09-17T00:36:08.384Z,23.50
2023-09-17T00:38:35.303Z,23.50
2023-09-17T00:41:02.156Z,23.40
2023-09-17T00:43:29.089Z,23.50
2023-09-17T00:45:56.112Z,23.50
2023-09-17T00:48:23.556Z,23.40
2023-09-17T00:50:50.586Z,23.40
2023-09-17T00:53:17.551Z,23.40
2023-09-17T00:55:44.648Z,23.40
2023-09-17T00:58:11.752Z,23.50
2023-09-17T01:00:39.918Z,23.40
2023-09-17T01:03:08.597Z,23.40
2023-09-17T01:05:40.339Z,23.40
2023-09-17T01:08:11.282Z,23.30
2023-09-17T01:10:42.304Z,23.40
2023-09-17T01:13:10.356Z,23.40
2023-09-17T01:15:38.928Z,23.40
2023-09-17T01:18:07.509Z,23.40
2023-09-17T01:21:04.395Z,23.40
2023-09-17T01:23:39.836Z,23.40
2023-09-17T01:26:18.055Z,23.40
2023-09-17T01:28:45.205Z,23.30
2023-09-17T01:31:13.619Z,23.20
2023-09-17T01:33:40.640Z,23.20
2023-09-17T01:36:12.612Z,23.20
2023-09-17T01:38:48.059Z,23.30
2023-09-17T01:41:16.853Z,23.30
2023-09-17T01:43:45.845Z,23.20
2023-09-17T01:46:13.309Z,23.20
2023-09-17T01:48:43.927Z,23.20
2023-09-17T01:51:12.677Z,23.20
2023-09-17T01:53:40.053Z,23.20
2023-09-17T01:56:07.035Z,23.20
2023-09-17T01:58:35.312Z,23.20
2023-09-17T02:01:02.485Z,23.10
2023-09-17T02:03:30.434Z,23.10
2023-09-17T02:05:57.974Z,23.00
2023-09-17T02:08:25.056Z,23.00
2023-09-17T02:10:51.970Z,23.00
2023-09-17T02:13:18.912Z,23.00
2023-09-17T02:15:46.509Z,23.00
2023-09-17T02:18:13.704Z,22.90
2023-09-17T02:20:41.378Z,22.90
2023-09-17T02:23:10.620Z,22.90
2023-09-17T02:25:37.731Z,22.90
2023-09-17T02:28:05.059Z,22.90
2023-09-17T02:30:32.310Z,23.00
2023-09-17T02:32:59.358Z,22.90
2023-09-17T02:35:26.467Z,22.90
2023-09-17T02:37:53.547Z,22.90
2023-09-17T02:40:21.280Z,22.80
2023-09-17T02:42:49.519Z,22.80
2023-09-17T02:45:16.638Z,22.90
2023-09-17T02:47:43.557Z,22.80
2023-09-17T02:50:11.068Z,22.70
2023-09-17T02:52:39.336Z,22.70
2023-09-17T02:55:06.678Z,22.80
2023-09-17T02:57:33.808Z,22.80
2023-09-17T03:00:00.759Z,22.70
2023-09-17T03:02:27.798Z,22.70
2023-09-17T03:04:57.678Z,22.70
2023-09-17T03:07:25.817Z,22.60
2023-09-17T03:09:52.858Z,22.70
2023-09-17T03:12:19.710Z,22.60
2023-09-17T03:14:47.058Z,22.60
2023-09-17T03:17:14.139Z,22.70
2023-09-17T03:19:41.786Z,22.60
2023-09-17T03:22:08.838Z,22.60
2023-09-17T03:24:36.059Z,22.50
2023-09-17T03:27:02.972Z,22.60
2023-09-17T03:29:29.877Z,22.60
2023-09-17T03:31:56.904Z,22.60
2023-09-17T03:34:23.866Z,22.50
2023-09-17T03:36:52.064Z,22.50
2023-09-17T03:39:19.030Z,22.50
2023-09-17T03:41:45.922Z,22.50
2023-09-17T03:44:12.789Z,22.50
2023-09-17T03:46:39.883Z,22.50
2023-09-17T03:49:07.230Z,22.40
2023-09-17T03:51:34.453Z,22.40
2023-09-17T03:54:01.730Z,22.40
2023-09-17T03:56:28.880Z,22.40
2023-09-17T03:58:55.929Z,22.30
2023-09-17T04:01:23.051Z,22.30
2023-09-17T04:03:50.396Z,22.30
2023-09-17T04:06:17.644Z,22.40
2023-09-17T04:08:44.669Z,22.20
2023-09-17T04:11:16.990Z,22.30
2023-09-17T04:13:44.990Z,22.20
2023-09-17T04:16:13.635Z,22.20
2023-09-17T04:18:40.747Z,22.20
2023-09-17T04:21:07.677Z,22.20
2023-09-17T04:23:34.689Z,22.20
2023-09-17T04:26:01.966Z,22.20
2023-09-17T04:28:28.935Z,22.20
2023-09-17T04:30:56.028Z,22.20
2023-09-17T04:33:24.034Z,22.20
2023-09-17T04:35:57.508Z,22.20
2023-09-17T04:38:24.677Z,22.20
2023-09-17T04:40:51.639Z,22.20
2023-09-17T04:43:20.902Z,22.20
2023-09-17T04:45:47.934Z,22.10
2023-09-17T04:48:17.431Z,22.30
2023-09-17T04:50:47.947Z,22.40
2023-09-17T04:53:15.614Z,22.50
2023-09-17T04:55:42.647Z,22.40
2023-09-17T04:58:09.557Z,22.40
2023-09-17T05:00:38.154Z,22.50
2023-09-17T05:03:05.398Z,22.60
2023-09-17T05:05:32.381Z,22.60
2023-09-17T05:07:59.393Z,22.60
2023-09-17T05:10:27.256Z,22.60
2023-09-17T05:12:54.496Z,22.70
2023-09-17T05:15:22.597Z,22.70
2023-09-17T05:17:50.408Z,22.70
2023-09-17T05:20:19.576Z,22.80
2023-09-17T05:22:46.690Z,22.80
2023-09-17T05:25:13.592Z,22.80
2023-09-17T05:27:40.463Z,22.90
2023-09-17T05:30:08.100Z,22.90
2023-09-17T05:32:35.287Z,23.00
2023-09-17T05:35:04.480Z,23.00
2023-09-17T05:37:32.488Z,23.00
2023-09-17T05:39:59.934Z,23.10
2023-09-17T05:42:26.794Z,23.10
2023-09-17T05:44:53.954Z,23.10
2023-09-17T05:47:20.995Z,23.20
2023-09-17T05:49:47.935Z,23.10
2023-09-17T05:52:14.835Z,23.20
2023-09-17T05:54:41.642Z,23.30
2023-09-17T05:57:08.489Z,23.30
2023-09-17T05:59:35.618Z,23.40
2023-09-17T06:02:02.598Z,23.40
2023-09-17T06:04:29.629Z,23.40
2023-09-17T06:06:56.502Z,23.50
2023-09-17T06:09:23.470Z,23.50
2023-09-17T06:11:51.575Z,23.60
2023-09-17T06:14:18.779Z,23.60
2023-09-17T06:16:56.756Z,23.70
2023-09-17T06:19:25.647Z,23.70
2023-09-17T06:21:54.273Z,23.80
2023-09-17T06:24:21.133Z,23.90
2023-09-17T06:26:48.146Z,23.90
2023-09-17T06:29:14.993Z,24.00
2023-09-17T06:31:42.273Z,24.10
2023-09-17T06:34:10.784Z,24.10
2023-09-17T06:36:38.415Z,24.00
2023-09-17T06:39:07.181Z,24.10
2023-09-17T06:41:36.866Z,24.10
2023-09-17T06:44:05.309Z,24.00
2023-09-17T06:46:32.672Z,24.00
2023-09-17T06:49:01.897Z,24.10
2023-09-17T06:51:28.796Z,24.20
2023-09-17T06:53:55.692Z,24.30
2023-09-17T06:56:25.161Z,24.50
2023-09-17T06:58:52.380Z,24.50
2023-09-17T07:01:20.407Z,24.70
2023-09-17T07:03:48.291Z,24.80
2023-09-17T07:06:15.309Z,24.80
2023-09-17T07:08:42.248Z,24.80
2023-09-17T07:11:09.187Z,24.90
2023-09-17T07:13:36.103Z,25.00
2023-09-17T07:16:03.052Z,25.00
2023-09-17T07:18:32.917Z,25.10
2023-09-17T07:21:00.133Z,25.10
2023-09-17T07:23:27.108Z,25.10
2023-09-17T07:25:55.152Z,25.20
2023-09-17T07:28:22.134Z,25.20
2023-09-17T07:30:55.716Z,25.30
2023-09-17T07:33:22.829Z,25.30
2023-09-17T07:35:49.747Z,25.40
2023-09-17T07:38:17.324Z,25.50
2023-09-17T07:40:44.434Z,25.60
2023-09-17T07:43:12.102Z,25.70
2023-09-17T07:45:39.040Z,25.90
2023-09-17T07:48:06.196Z,25.90
2023-09-17T07:50:33.213Z,26.10
2023-09-17T07:53:00.845Z,26.20
2023-09-17T07:55:27.872Z,26.20
2023-09-17T07:57:56.107Z,26.20
2023-09-17T08:00:23.200Z,26.10
2023-09-17T08:02:50.502Z,25.90
2023-09-17T08:05:18.989Z,25.80
2023-09-17T08:07:46.990Z,25.70
2023-09-17T08:10:14.019Z,25.70
2023-09-17T08:12:40.942Z,25.70
2023-09-17T08:15:08.859Z,25.90
2023-09-17T08:17:35.802Z,26.00
2023-09-17T08:20:02.776Z,26.10
2023-09-17T08:22:30.613Z,26.20
2023-09-17T08:24:57.500Z,26.30
2023-09-17T08:27:24.387Z,26.40
2023-09-17T08:29:51.353Z,26.50
2023-09-17T08:32:18.289Z,26.50
2023-09-17T08:34:45.159Z,26.70
2023-09-17T08:37:12.025Z,26.80
2023-09-17T08:39:38.879Z,26.90
2023-09-17T08:42:06.250Z,26.90
2023-09-17T08:44:37.178Z,27.00
2023-09-17T08:47:04.355Z,27.10
2023-09-17T08:49:31.347Z,27.10
2023-09-17T08:52:03.226Z,27.20
2023-09-17T08:54:45.004Z,27.40
2023-09-17T08:57:15.361Z,27.50
2023-09-17T08:59:46.743Z,27.60
2023-09-17T09:02:30.625Z,27.50
2023-09-17T09:04:59.009Z,27.70
2023-09-17T09:07:26.988Z,27.90
2023-09-17T09:09:54.243Z,27.90
2023-09-17T09:12:22.203Z,27.90
2023-09-17T09:14:49.524Z,27.90
2023-09-17T09:17:16.443Z,27.80
2023-09-17T09:19:43.482Z,27.80
2023-09-17T09:22:10.591Z,27.80
2023-09-17T09:24:49.210Z,27.80
2023-09-17T09:27:16.480Z,27.70
2023-09-17T09:29:46.183Z,27.70
2023-09-17T09:32:13.991Z,27.70
2023-09-17T09:34:44.819Z,27.70
2023-09-17T09:37:12.013Z,27.70
2023-09-17T09:39:39.675Z,27.80
2023-09-17T09:42:07.608Z,27.90
2023-09-17T09:44:36.278Z,28.10
2023-09-17T09:47:03.939Z,28.20
2023-09-17T09:49:43.749Z,28.40
2023-09-17T09:52:13.678Z,28.60
2023-09-17T09:54:44.777Z,28.70
2023-09-17T09:57:17.151Z,28.80
2023-09-17T09:59:46.897Z,29.00
2023-09-17T10:02:16.798Z,29.10
2023-09-17T10:04:45.512Z,29.10
2023-09-17T10:07:15.157Z,29.10
2023-09-17T10:09:42.649Z,29.20
2023-09-17T10:12:09.971Z,29.30
2023-09-17T10:14:38.714Z,29.30
2023-09-17T10:17:11.651Z,29.40
2023-09-17T10:19:40.513Z,29.60
2023-09-17T10:22:10.450Z,29.80
2023-09-17T10:24:38.482Z,29.60
2023-09-17T10:27:07.741Z,29.70
2023-09-17T10:29:37.013Z,29.70
2023-09-17T10:32:05.146Z,29.80
2023-09-17T10:34:39.435Z,29.80
2023-09-17T10:37:07.458Z,30.00
2023-09-17T10:39:34.878Z,29.90
2023-09-17T10:42:04.160Z,30.00
2023-09-17T10:44:32.018Z,30.00
2023-09-17T10:47:02.617Z,30.10
2023-09-17T10:49:33.066Z,30.10
2023-09-17T10:52:00.573Z,30.10
2023-09-17T10:54:27.639Z,30.00
2023-09-17T10:56:56.963Z,30.00
2023-09-17T10:59:24.954Z,30.10
2023-09-17T11:01:53.384Z,30.10
2023-09-17T11:04:23.801Z,30.30
2023-09-17T11:06:53.389Z,30.20
2023-09-17T11:09:21.425Z,30.30
2023-09-17T11:11:49.775Z,30.30
2023-09-17T11:14:17.151Z,30.50
2023-09-17T11:16:47.869Z,30.40
2023-09-17T11:19:20.542Z,30.50
2023-09-17T11:22:08.141Z,30.60
2023-09-17T11:24:35.209Z,30.60
2023-09-17T11:27:12.795Z,30.50
2023-09-17T11:29:44.380Z,30.50
2023-09-17T11:32:13.012Z,30.50
2023-09-17T11:34:43.632Z,30.60
2023-09-17T11:37:10.600Z,30.60
2023-09-17T11:39:39.164Z,30.70
2023-09-17T11:42:11.167Z,30.70
2023-09-17T11:44:38.549Z,30.90
2023-09-17T11:47:08.556Z,30.80
2023-09-17T11:49:36.201Z,30.90
2023-09-17T11:52:13.073Z,30.90
2023-09-17T11:54:52.597Z,30.90
2023-09-17T11:57:26.837Z,30.90
2023-09-17T11:59:55.438Z,30.90
2023-09-17T12:02:24.090Z,31.00
2023-09-17T12:04:52.879Z,31.00
2023-09-17T12:07:20.532Z,31.00
2023-09-17T12:10:02.931Z,30.90
2023-09-17T12:12:33.159Z,30.90
2023-09-17T12:15:00.355Z,30.80
2023-09-17T12:17:28.242Z,30.80
2023-09-17T12:20:43.341Z,30.80
2023-09-17T12:23:24.205Z,30.80
2023-09-17T12:25:51.225Z,30.90
2023-09-17T12:28:27.527Z,30.80
2023-09-17T12:30:55.443Z,30.80
2023-09-17T12:33:23.407Z,30.80
2023-09-17T12:35:51.345Z,30.80
2023-09-17T12:38:18.375Z,30.90
2023-09-17T12:40:45.256Z,30.90
2023-09-17T12:43:12.109Z,30.90
2023-09-17T12:45:39.673Z,30.90
2023-09-17T12:48:07.042Z,30.90
2023-09-17T12:50:34.006Z,30.90
2023-09-17T12:53:01.466Z,31.00
2023-09-17T12:55:28.628Z,31.00
2023-09-17T12:57:55.775Z,31.00
2023-09-17T13:00:24.191Z,31.00
2023-09-17T13:02:55.581Z,30.90
2023-09-17T13:05:23.391Z,30.80
2023-09-17T13:07:50.782Z,30.80
2023-09-17T13:10:21.337Z,30.80
2023-09-17T13:12:49.138Z,30.80
2023-09-17T13:15:16.280Z,30.70
2023-09-17T13:17:43.190Z,30.70
2023-09-17T13:20:10.492Z,30.60
2023-09-17T13:22:37.623Z,30.50
2023-09-17T13:25:04.916Z,30.50
2023-09-17T13:27:31.875Z,30.50
2023-09-17T13:29:59.142Z,30.50
2023-09-17T13:32:27.363Z,30.50
2023-09-17T13:34:54.403Z,30.50
2023-09-17T13:37:21.773Z,30.40
2023-09-17T13:39:53.825Z,30.50
2023-09-17T13:42:21.768Z,30.50
2023-09-17T13:44:48.799Z,30.50
2023-09-17T13:47:15.743Z,30.50
2023-09-17T13:49:42.843Z,30.60
2023-09-17T13:52:10.426Z,30.50
2023-09-17T13:54:43.111Z,30.50
2023-09-17T13:57:10.235Z,30.50
2023-09-17T13:59:37.190Z,30.50
2023-09-17T14:02:05.176Z,30.50
2023-09-17T14:04:32.573Z,30.50
2023-09-17T14:06:59.694Z,30.50
2023-09-17T14:09:26.623Z,30.50
2023-09-17T14:11:53.563Z,30.50
2023-09-17T14:14:20.456Z,30.60
2023-09-17T14:16:47.539Z,30.60
2023-09-17T14:19:19.624Z,30.60
2023-09-17T14:21:47.888Z,30.60
2023-09-17T14:24:14.940Z,30.60
2023-09-17T14:26:42.048Z,30.60
2023-09-17T14:29:09.132Z,30.60
2023-09-17T14:31:38.427Z,30.60
2023-09-17T14:34:07.274Z,30.60
2023-09-17T14:36:34.231Z,30.60
2023-09-17T14:39:02.662Z,30.60
2023-09-17T14:41:31.213Z,30.60
2023-09-17T14:43:58.341Z,30.50
2023-09-17T14:46:25.553Z,30.50
2023-09-17T14:48:53.867Z,30.50
2023-09-17T14:51:21.395Z,30.50
2023-09-17T14:53:48.469Z,30.60
2023-09-17T14:56:16.798Z,30.60
2023-09-17T14:58:43.774Z,30.70
2023-09-17T15:01:17.635Z,30.60
2023-09-17T15:03:57.820Z,30.70
2023-09-17T15:06:24.902Z,30.70
2023-09-17T15:08:52.080Z,30.70
2023-09-17T15:11:19.393Z,30.70
2023-09-17T15:13:47.504Z,30.80
2023-09-17T15:16:15.184Z,30.70
2023-09-17T15:18:42.118Z,30.70
2023-09-17T15:21:09.001Z,30.70
2023-09-17T15:23:35.850Z,30.70
2023-09-17T15:26:02.841Z,30.70
2023-09-17T15:28:30.263Z,30.70
2023-09-17T15:30:57.365Z,30.60
2023-09-17T15:33:24.487Z,30.60
2023-09-17T15:35:53.313Z,30.60
2023-09-17T15:38:20.553Z,30.50
2023-09-17T15:40:56.191Z,30.50
2023-09-17T15:43:23.196Z,30.50
2023-09-17T15:45:50.127Z,30.40
2023-09-17T15:48:17.022Z,30.40
2023-09-17T15:50:44.435Z,30.30
2023-09-17T15:53:11.313Z,30.30
2023-09-17T15:55:38.285Z,30.30
2023-09-17T15:58:06.962Z,30.30
2023-09-17T16:00:33.825Z,30.20
2023-09-17T16:03:00.965Z,30.30
2023-09-17T16:05:28.537Z,30.20
2023-09-17T16:07:55.439Z,30.20
2023-09-17T16:10:24.034Z,30.20
2023-09-17T16:12:51.044Z,30.00
2023-09-17T16:15:18.363Z,30.00
2023-09-17T16:17:45.301Z,30.00
2023-09-17T16:20:12.354Z,29.90
2023-09-17T16:22:39.262Z,29.90
2023-09-17T16:25:09.288Z,29.90
2023-09-17T16:27:36.604Z,29.80
2023-09-17T16:30:05.228Z,29.70
2023-09-17T16:32:32.788Z,29.60
2023-09-17T16:34:59.897Z,29.40
2023-09-17T16:37:26.886Z,29.40
2023-09-17T16:39:54.350Z,29.40
2023-09-17T16:42:21.724Z,29.30
2023-09-17T16:44:49.220Z,29.20
2023-09-17T16:47:16.722Z,29.20
2023-09-17T16:49:45.997Z,29.10
2023-09-17T16:52:13.028Z,29.00
2023-09-17T16:54:41.624Z,28.90
2023-09-17T16:57:10.538Z,29.00
2023-09-17T16:59:37.847Z,28.90
2023-09-17T17:02:07.172Z,28.80
2023-09-17T17:04:34.566Z,28.70
2023-09-17T17:07:01.792Z,28.70
2023-09-17T17:09:28.656Z,28.60
2023-09-17T17:11:55.648Z,28.60
2023-09-17T17:14:24.983Z,28.50
2023-09-17T17:16:51.938Z,28.50
2023-09-17T17:19:18.804Z,28.40
2023-09-17T17:21:45.929Z,28.30
2023-09-17T17:24:13.895Z,28.30
2023-09-17T17:26:42.030Z,28.30
2023-09-17T17:29:08.956Z,28.20
2023-09-17T17:31:35.968Z,28.20
2023-09-17T17:34:02.866Z,28.10
2023-09-17T17:36:30.238Z,28.10
2023-09-17T17:38:57.248Z,28.00
2023-09-17T17:41:24.102Z,28.00
2023-09-17T17:43:51.912Z,28.00
2023-09-17T17:46:19.062Z,28.00
2023-09-17T17:48:46.236Z,27.90
2023-09-17T17:51:14.052Z,27.80
2023-09-17T17:53:40.914Z,27.80
2023-09-17T17:56:08.781Z,27.80
2023-09-17T17:58:35.836Z,27.80
2023-09-17T18:01:04.230Z,27.80
2023-09-17T18:03:31.717Z,27.80
2023-09-17T18:05:59.748Z,27.70
2023-09-17T18:08:27.183Z,27.80
2023-09-17T18:10:54.088Z,27.70
2023-09-17T18:13:21.161Z,27.70
2023-09-17T18:15:48.098Z,27.80
2023-09-17T18:18:16.686Z,27.80
2023-09-17T18:20:44.492Z,27.70
2023-09-17T18:23:11.552Z,27.70
2023-09-17T18:25:40.009Z,27.70
2023-09-17T18:28:10.591Z,27.60
2023-09-17T18:30:38.014Z,27.60
2023-09-17T18:33:07.063Z,27.50
2023-09-17T18:35:34.152Z,27.50
2023-09-17T18:38:03.498Z,27.50
2023-09-17T18:40:30.486Z,27.40
2023-09-17T18:42:57.365Z,27.40
2023-09-17T18:45:24.410Z,27.40
2023-09-17T18:47:51.309Z,27.30
2023-09-17T18:50:18.329Z,27.30
2023-09-17T18:52:45.262Z,27.40
2023-09-17T18:55:12.339Z,27.30
2023-09-17T18:57:40.868Z,27.30
2023-09-17T19:00:09.567Z,27.40
2023-09-17T19:02:41.009Z,27.40
2023-09-17T19:05:08.763Z,27.40
2023-09-17T19:07:36.109Z,27.40
2023-09-17T19:10:04.848Z,27.40
2023-09-17T19:12:31.740Z,27.40
2023-09-17T19:15:00.399Z,27.30
2023-09-17T19:17:28.883Z,27.30
2023-09-17T19:19:56.150Z,27.40
2023-09-17T19:22:23.916Z,27.40
2023-09-17T19:24:50.958Z,27.40
2023-09-17T19:27:17.836Z,27.40
2023-09-17T19:29:45.520Z,27.40
2023-09-17T19:32:13.900Z,27.40
2023-09-17T19:34:41.342Z,27.40
2023-09-17T19:37:09.296Z,27.40
2023-09-17T19:39:36.263Z,27.40
2023-09-17T19:42:03.123Z,27.30
2023-09-17T19:44:30.017Z,27.40
2023-09-17T19:46:59.841Z,27.30
2023-09-17T19:49:27.570Z,27.30
2023-09-17T19:51:55.258Z,27.30
2023-09-17T19:54:22.136Z,27.30
2023-09-17T19:56:49.280Z,27.20
2023-09-17T19:59:16.700Z,27.10
2023-09-17T20:01:47.503Z,27.00
2023-09-17T20:04:15.801Z,26.90
2023-09-17T20:06:53.918Z,26.90
2023-09-17T20:09:22.223Z,26.90
2023-09-17T20:11:49.462Z,26.80
2023-09-17T20:14:18.985Z,26.70
2023-09-17T20:16:46.064Z,26.70
2023-09-17T20:19:13.121Z,26.80
2023-09-17T20:21:40.799Z,26.60
2023-09-17T20:24:07.897Z,26.60
2023-09-17T20:26:37.443Z,26.50
2023-09-17T20:29:05.513Z,26.50
2023-09-17T20:31:32.883Z,26.40
2023-09-17T20:34:00.951Z,26.40
2023-09-17T20:36:27.835Z,26.40
2023-09-17T20:38:54.938Z,26.30
2023-09-17T20:41:24.178Z,26.30
2023-09-17T20:43:51.221Z,26.30
2023-09-17T20:46:18.503Z,26.20
2023-09-17T20:48:45.942Z,26.20
2023-09-17T20:51:12.842Z,26.20
2023-09-17T20:53:39.773Z,26.20
2023-09-17T20:56:06.691Z,26.10
2023-09-17T20:58:35.909Z,26.10
2023-09-17T21:01:03.104Z,26.00
2023-09-17T21:03:30.306Z,26.00
2023-09-17T21:05:57.214Z,25.90
2023-09-17T21:08:25.491Z,26.00
2023-09-17T21:10:52.603Z,26.00
2023-09-17T21:13:19.550Z,25.90
2023-09-17T21:15:46.491Z,25.90
2023-09-17T21:18:13.411Z,25.80
2023-09-17T21:20:41.019Z,25.80
2023-09-17T21:23:09.007Z,25.90
2023-09-17T21:25:36.045Z,25.80
2023-09-17T21:28:03.677Z,25.70
2023-09-17T21:30:31.959Z,25.70
2023-09-17T21:32:59.257Z,25.80
2023-09-17T21:35:26.452Z,25.70
2023-09-17T21:37:53.434Z,25.70
2023-09-17T21:40:20.316Z,25.60
2023-09-17T21:42:47.295Z,25.50
2023-09-17T21:45:14.550Z,25.50
2023-09-17T21:47:41.513Z,25.50
2023-09-17T21:50:09.138Z,25.50
2023-09-17T21:52:36.288Z,25.40
2023-09-17T21:55:03.307Z,25.40
2023-09-17T21:57:30.176Z,25.40
2023-09-17T21:59:57.033Z,25.40
2023-09-17T22:02:25.505Z,25.30
2023-09-17T22:04:52.571Z,25.30
2023-09-17T22:07:19.619Z,25.30
2023-09-17T22:09:46.546Z,25.20
2023-09-17T22:12:15.554Z,25.10
2023-09-17T22:14:42.476Z,25.20
2023-09-17T22:17:11.834Z,25.10
2023-09-17T22:19:41.801Z,25.10
2023-09-17T22:22:09.008Z,25.10
2023-09-17T22:24:36.351Z,25.10
2023-09-17T22:27:03.876Z,25.00
2023-09-17T22:29:30.865Z,25.10
2023-09-17T22:31:57.843Z,25.10
2023-09-17T22:34:24.792Z,25.00
2023-09-17T22:36:51.688Z,25.00
2023-09-17T22:39:18.644Z,25.00
2023-09-17T22:41:45.542Z,25.00
2023-09-17T22:44:23.622Z,25.00
2023-09-17T22:46:52.265Z,24.90
2023-09-17T22:49:19.360Z,24.90
2023-09-17T22:51:46.176Z,24.90
2023-09-17T22:54:13.156Z,24.90
2023-09-17T22:56:40.441Z,24.90
2023-09-17T22:59:07.383Z,24.90
2023-09-17T23:01:34.383Z,24.80
2023-09-17T23:04:01.269Z,24.80
2023-09-17T23:06:29.158Z,24.80
2023-09-17T23:08:59.547Z,24.70
2023-09-17T23:11:26.427Z,24.70
2023-09-17T23:13:53.471Z,24.70
2023-09-17T23:16:20.536Z,24.60
2023-09-17T23:18:47.580Z,24.60
2023-09-17T23:21:16.412Z,24.60
2023-09-17T23:23:44.193Z,24.60
2023-09-17T23:26:13.567Z,24.50
2023-09-17T23:28:41.195Z,24.50
2023-09-17T23:31:11.314Z,24.50
2023-09-17T23:33:38.290Z,24.50
2023-09-17T23:36:05.680Z,24.50
2023-09-17T23:38:32.865Z,24.50
2023-09-17T23:40:59.828Z,24.40
2023-09-17T23:43:27.225Z,24.40
2023-09-17T23:45:54.128Z,24.40
2023-09-17T23:48:21.108Z,24.30
2023-09-17T23:50:51.727Z,24.40
2023-09-17T23:53:18.705Z,24.30
2023-09-17T23:55:49.403Z,24.30
2023-09-17T23:58:19.563Z,24.30
